createdAt,value
2023-04-15T00:00:44.638Z,87.72
2023-04-15T00:03:42.539Z,87.77
2023-04-15T00:06:40.910Z,87.46
2023-04-15T00:09:38.678Z,87.45
2023-04-15T00:12:36.098Z,87.25
2023-04-15T00:15:34.092Z,86.99
2023-04-15T00:18:31.747Z,86.89
2023-04-15T00:21:29.753Z,86.91
2023-04-15T00:24:27.197Z,86.90
2023-04-15T00:27:25.131Z,87.00
2023-04-15T00:30:22.585Z,87.01
2023-04-15T00:33:20.299Z,87.02
2023-04-15T00:36:17.769Z,86.95
2023-04-15T00:39:16.850Z,87.06
2023-04-15T00:42:14.323Z,87.15
2023-04-15T00:45:12.082Z,87.09
2023-04-15T00:48:10.549Z,87.17
2023-04-15T00:51:09.775Z,87.24
2023-04-15T00:54:09.323Z,87.24
2023-04-15T00:57:06.732Z,87.29
2023-04-15T01:00:06.304Z,87.18
2023-04-15T01:03:03.909Z,87.26
2023-04-15T01:06:04.010Z,87.42
2023-04-15T01:09:02.048Z,87.51
2023-04-15T01:12:00.069Z,87.43
2023-04-15T01:14:57.508Z,87.50
2023-04-15T01:17:55.334Z,87.63
2023-04-15T01:20:53.194Z,87.72
2023-04-15T01:23:50.586Z,87.78
2023-04-15T01:26:49.339Z,87.79
2023-04-15T01:29:47.348Z,87.80
2023-04-15T01:32:45.129Z,87.77
2023-04-15T01:35:44.275Z,87.83
2023-04-15T01:38:41.997Z,87.91
2023-04-15T01:41:39.501Z,88.03
2023-04-15T01:44:37.765Z,88.10
2023-04-15T01:47:35.437Z,88.09
2023-04-15T01:50:32.933Z,88.10
2023-04-15T01:53:30.747Z,88.13
2023-04-15T01:56:28.150Z,88.18
2023-04-15T01:59:26.199Z,88.13
2023-04-15T02:02:23.738Z,88.28
2023-04-15T02:05:21.492Z,88.33
2023-04-15T02:08:19.052Z,88.23
2023-04-15T02:11:16.864Z,88.15
2023-04-15T02:14:14.287Z,88.09
2023-04-15T02:17:12.014Z,88.06
2023-04-15T02:20:10.988Z,88.18
2023-04-15T02:23:08.766Z,88.21
2023-04-15T02:26:07.731Z,88.21
2023-04-15T02:29:05.228Z,88.21
2023-04-15T02:32:02.811Z,88.23
2023-04-15T02:35:00.262Z,88.29
2023-04-15T02:37:57.901Z,88.24
2023-04-15T02:40:55.559Z,88.28
2023-04-15T02:43:53.313Z,88.34
2023-04-15T02:46:53.032Z,88.40
2023-04-15T02:49:50.444Z,88.42
2023-04-15T02:52:48.264Z,88.45
2023-04-15T02:55:45.735Z,88.45
2023-04-15T02:58:43.484Z,88.40
2023-04-15T03:01:40.931Z,88.45
2023-04-15T03:04:38.579Z,88.40
2023-04-15T03:07:36.068Z,88.48
2023-04-15T03:10:33.730Z,88.47
2023-04-15T03:13:31.537Z,88.45
2023-04-15T03:16:28.944Z,88.51
2023-04-15T03:19:26.620Z,88.48
2023-04-15T03:22:24.031Z,88.46
2023-04-15T03:25:21.835Z,88.42
2023-04-15T03:28:19.247Z,88.41
2023-04-15T03:31:17.195Z,88.40
2023-04-15T03:34:14.700Z,88.38
2023-04-15T03:37:12.309Z,88.38
2023-04-15T03:40:10.033Z,88.41
2023-04-15T03:43:07.477Z,88.44
2023-04-15T03:46:05.093Z,88.41
2023-04-15T03:49:02.724Z,88.32
2023-04-15T03:52:00.749Z,88.30
2023-04-15T03:54:58.200Z,88.27
2023-04-15T03:57:55.957Z,88.26
2023-04-15T04:00:53.460Z,88.30
2023-04-15T04:03:51.508Z,88.37
2023-04-15T04:06:49.470Z,88.41
2023-04-15T04:09:47.414Z,88.38
2023-04-15T04:12:45.210Z,88.32
2023-04-15T04:15:42.699Z,88.32
2023-04-15T04:18:40.416Z,88.32
2023-04-15T04:21:39.763Z,88.32
2023-04-15T04:24:37.520Z,88.32
2023-04-15T04:27:35.019Z,88.37
2023-04-15T04:30:33.065Z,88.39
2023-04-15T04:33:30.900Z,88.40
2023-04-15T04:36:28.358Z,88.41
2023-04-15T04:39:26.536Z,88.43
2023-04-15T04:42:23.984Z,88.42
2023-04-15T04:45:21.757Z,88.45
2023-04-15T04:48:20.004Z,88.50
2023-04-15T04:51:17.679Z,88.54
2023-04-15T04:54:15.126Z,88.56
2023-04-15T04:57:13.947Z,88.59
2023-04-15T05:00:11.452Z,88.61
2023-04-15T05:03:09.500Z,88.58
2023-04-15T05:06:08.990Z,88.57
2023-04-15T05:09:06.788Z,88.52
2023-04-15T05:12:04.415Z,88.50
2023-04-15T05:15:01.818Z,88.48
2023-04-15T05:17:59.646Z,88.44
2023-04-15T05:20:57.155Z,88.50
2023-04-15T05:23:54.723Z,88.58
2023-04-15T05:26:52.594Z,88.63
2023-04-15T05:29:50.064Z,88.72
2023-04-15T05:32:47.814Z,88.70
2023-04-15T05:35:45.229Z,88.73
2023-04-15T05:38:44.872Z,88.66
2023-04-15T05:41:42.270Z,88.61
2023-04-15T05:44:40.022Z,88.61
2023-04-15T05:47:37.933Z,88.63
2023-04-15T05:50:35.968Z,88.57
2023-04-15T05:53:33.614Z,88.48
2023-04-15T05:56:31.794Z,88.35
2023-04-15T05:59:29.942Z,88.13
2023-04-15T06:02:28.060Z,87.87
2023-04-15T06:05:25.801Z,87.74
2023-04-15T06:08:23.558Z,87.71
2023-04-15T06:11:21.241Z,87.79
2023-04-15T06:14:18.846Z,87.72
2023-04-15T06:17:18.541Z,87.62
2023-04-15T06:20:16.473Z,87.70
2023-04-15T06:23:13.882Z,87.52
2023-04-15T06:26:11.527Z,87.53
2023-04-15T06:29:09.654Z,87.56
2023-04-15T06:32:07.134Z,87.41
2023-04-15T06:35:04.913Z,87.08
2023-04-15T06:38:02.315Z,87.10
2023-04-15T06:40:59.980Z,87.12
2023-04-15T06:43:57.439Z,86.93
2023-04-15T06:46:55.243Z,86.31
2023-04-15T06:49:53.024Z,86.07
2023-04-15T06:52:50.906Z,85.85
2023-04-15T06:55:48.644Z,85.90
2023-04-15T06:58:46.433Z,85.83
2023-04-15T07:01:44.049Z,85.73
2023-04-15T07:04:41.512Z,85.57
2023-04-15T07:07:39.138Z,85.45
2023-04-15T07:10:36.880Z,85.39
2023-04-15T07:13:34.333Z,85.27
2023-04-15T07:16:32.076Z,85.25
2023-04-15T07:19:29.518Z,85.22
2023-04-15T07:22:28.102Z,84.87
2023-04-15T07:25:25.828Z,84.61
2023-04-15T07:28:23.587Z,84.65
2023-04-15T07:31:22.156Z,84.77
2023-04-15T07:34:19.636Z,85.08
2023-04-15T07:37:18.004Z,85.04
2023-04-15T07:40:16.339Z,84.98
2023-04-15T07:43:14.123Z,84.95
2023-04-15T07:46:11.816Z,84.85
2023-04-15T07:49:09.354Z,85.06
2023-04-15T07:52:06.982Z,85.00
2023-04-15T07:55:04.839Z,84.49
2023-04-15T07:58:02.427Z,85.41
2023-04-15T08:00:59.823Z,84.70
2023-04-15T08:03:58.245Z,84.84
2023-04-15T08:06:56.198Z,84.25
2023-04-15T08:09:53.616Z,83.58
2023-04-15T08:12:55.741Z,83.64
2023-04-15T08:15:53.258Z,83.25
2023-04-15T08:18:50.882Z,83.25
2023-04-15T08:21:48.334Z,83.47
2023-04-15T08:24:45.905Z,83.44
2023-04-15T08:27:44.288Z,83.29
2023-04-15T08:30:41.860Z,83.10
2023-04-15T08:33:40.173Z,83.07
2023-04-15T08:36:37.577Z,83.10
2023-04-15T08:39:35.217Z,83.28
2023-04-15T08:42:32.660Z,83.27
2023-04-15T08:45:30.288Z,82.67
2023-04-15T08:48:28.108Z,82.75
2023-04-15T08:51:25.495Z,82.27
2023-04-15T08:54:23.121Z,81.37
2023-04-15T08:57:20.565Z,81.50
2023-04-15T09:00:19.301Z,81.34
2023-04-15T09:03:17.929Z,81.36
2023-04-15T09:06:15.400Z,81.66
2023-04-15T09:09:13.287Z,81.72
2023-04-15T09:12:11.402Z,81.30
2023-04-15T09:15:09.201Z,81.71
2023-04-15T09:18:07.053Z,81.61
2023-04-15T09:21:05.818Z,81.61
2023-04-15T09:24:04.386Z,81.47
2023-04-15T09:27:02.568Z,81.61
2023-04-15T09:30:00.205Z,81.14
2023-04-15T09:32:57.638Z,80.85
2023-04-15T09:35:55.233Z,80.51
2023-04-15T09:38:53.136Z,79.75
2023-04-15T09:41:51.675Z,79.40
2023-04-15T09:44:49.350Z,79.28
2023-04-15T09:47:46.885Z,79.84
2023-04-15T09:50:44.685Z,79.94
2023-04-15T09:53:42.140Z,79.09
2023-04-15T09:56:42.397Z,78.55
2023-04-15T09:59:39.907Z,78.39
2023-04-15T10:02:37.789Z,78.97
2023-04-15T10:05:35.996Z,78.75
2023-04-15T10:08:34.995Z,78.89
2023-04-15T10:11:33.255Z,78.44
2023-04-15T10:14:30.821Z,78.49
2023-04-15T10:17:31.134Z,78.45
2023-04-15T10:20:29.462Z,79.22
2023-04-15T10:23:27.529Z,79.16
2023-04-15T10:26:25.266Z,78.27
2023-04-15T10:29:22.660Z,78.14
2023-04-15T10:32:21.030Z,78.79
2023-04-15T10:35:18.806Z,78.49
2023-04-15T10:38:16.545Z,78.18
2023-04-15T10:41:14.200Z,77.36
2023-04-15T10:44:11.837Z,77.25
2023-04-15T10:47:10.860Z,77.96
2023-04-15T10:50:09.165Z,78.65
2023-04-15T10:53:06.606Z,78.97
2023-04-15T10:56:06.335Z,79.27
2023-04-15T10:59:03.723Z,78.91
2023-04-15T11:02:01.414Z,78.97
2023-04-15T11:04:58.876Z,78.27
2023-04-15T11:07:56.508Z,78.13
2023-04-15T11:10:57.080Z,78.24
2023-04-15T11:13:54.574Z,78.47
2023-04-15T11:16:52.221Z,78.88
2023-04-15T11:19:49.643Z,78.65
2023-04-15T11:22:47.559Z,78.43
2023-04-15T11:25:45.015Z,77.88
2023-04-15T11:28:43.325Z,78.07
2023-04-15T11:31:41.193Z,77.42
2023-04-15T11:34:38.678Z,76.43
2023-04-15T11:37:36.270Z,77.00
2023-04-15T11:40:35.537Z,76.59
2023-04-15T11:43:34.439Z,76.53
2023-04-15T11:46:32.450Z,75.91
2023-04-15T11:49:30.040Z,76.00
2023-04-15T11:52:27.698Z,75.43
2023-04-15T11:55:25.118Z,75.37
2023-04-15T11:58:22.844Z,74.87
2023-04-15T12:01:20.278Z,74.24
2023-04-15T12:04:21.645Z,74.84
2023-04-15T12:07:22.125Z,74.97
2023-04-15T12:10:19.507Z,74.46
2023-04-15T12:13:17.170Z,74.41
2023-04-15T12:16:14.750Z,73.69
2023-04-15T12:19:12.598Z,74.42
2023-04-15T12:22:11.657Z,74.11
2023-04-15T12:25:09.391Z,73.25
2023-04-15T12:28:06.981Z,74.52
2023-04-15T12:31:05.669Z,74.60
2023-04-15T12:34:03.917Z,74.54
2023-04-15T12:37:01.792Z,74.40
2023-04-15T12:39:59.247Z,74.36
2023-04-15T12:42:57.320Z,73.65
2023-04-15T12:45:54.772Z,73.57
2023-04-15T12:48:53.490Z,73.38
2023-04-15T12:51:51.110Z,72.53
2023-04-15T12:54:48.706Z,72.04
2023-04-15T12:57:46.126Z,71.46
2023-04-15T13:00:44.392Z,71.45
2023-04-15T13:03:42.325Z,70.82
2023-04-15T13:06:39.969Z,70.45
2023-04-15T13:09:38.138Z,70.84
2023-04-15T13:12:36.842Z,69.52
2023-04-15T13:15:34.571Z,68.85
2023-04-15T13:18:32.150Z,68.57
2023-04-15T13:21:30.039Z,68.66
2023-04-15T13:24:27.715Z,69.01
2023-04-15T13:27:25.152Z,69.40
2023-04-15T13:30:23.492Z,69.43
2023-04-15T13:33:20.958Z,68.74
2023-04-15T13:36:18.652Z,68.60
2023-04-15T13:39:16.119Z,68.74
2023-04-15T13:42:13.740Z,67.83
2023-04-15T13:45:11.471Z,68.28
2023-04-15T13:48:08.904Z,68.95
2023-04-15T13:51:06.875Z,68.15
2023-04-15T13:54:04.822Z,68.27
2023-04-15T13:57:03.060Z,68.55
2023-04-15T14:00:00.600Z,68.52
2023-04-15T14:02:58.363Z,67.89
2023-04-15T14:05:57.391Z,67.84
2023-04-15T14:08:55.017Z,68.16
2023-04-15T14:11:52.794Z,68.35
2023-04-15T14:14:50.283Z,68.54
2023-04-15T14:17:48.189Z,68.08
2023-04-15T14:20:45.850Z,67.56
2023-04-15T14:23:43.593Z,68.03
2023-04-15T14:26:41.781Z,68.13
2023-04-15T14:29:39.204Z,67.70
2023-04-15T14:32:37.058Z,67.84
2023-04-15T14:35:34.830Z,68.52
2023-04-15T14:38:34.261Z,68.17
2023-04-15T14:41:31.901Z,67.91
2023-04-15T14:47:27.201Z,67.66
2023-04-15T14:50:25.378Z,67.85
2023-04-15T14:53:23.077Z,67.64
2023-04-15T14:56:20.796Z,68.46
2023-04-15T14:59:18.551Z,68.96
2023-04-15T15:02:37.360Z,69.30
2023-04-15T15:05:36.548Z,69.09
2023-04-15T15:08:34.791Z,69.69
2023-04-15T15:11:32.250Z,69.24
2023-04-15T15:14:31.511Z,69.85
2023-04-15T15:17:29.390Z,70.24
2023-04-15T15:20:27.245Z,70.23
2023-04-15T15:23:25.125Z,70.44
2023-04-15T15:26:22.553Z,70.05
2023-04-15T15:29:20.686Z,70.03
2023-04-15T15:32:18.237Z,70.12
2023-04-15T15:35:16.670Z,70.36
2023-04-15T15:38:14.467Z,70.61
2023-04-15T15:41:11.965Z,70.42
2023-04-15T15:44:09.680Z,70.38
2023-04-15T15:47:07.426Z,70.25
2023-04-15T15:50:06.233Z,70.67
2023-04-15T15:53:04.205Z,70.39
2023-04-15T15:56:04.123Z,70.57
2023-04-15T15:59:02.323Z,70.65
2023-04-15T16:02:00.002Z,70.62
2023-04-15T16:04:57.880Z,70.62
2023-04-15T16:07:55.613Z,70.58
2023-04-15T16:10:53.254Z,70.62
2023-04-15T16:13:50.666Z,70.74
2023-04-15T16:16:48.660Z,71.16
2023-04-15T16:19:58.187Z,71.35
2023-04-15T16:22:58.283Z,71.17
2023-04-15T16:25:58.122Z,70.95
2023-04-15T16:28:55.937Z,70.83
2023-04-15T16:31:53.993Z,70.69
2023-04-15T16:34:52.778Z,70.86
2023-04-15T16:37:50.971Z,70.84
2023-04-15T16:40:48.862Z,70.95
2023-04-15T16:43:47.215Z,71.08
2023-04-15T16:46:44.930Z,70.96
2023-04-15T16:49:42.754Z,70.93
2023-04-15T16:52:41.989Z,70.56
2023-04-15T16:55:39.869Z,71.02
2023-04-15T16:58:37.930Z,71.16
2023-04-15T17:01:37.596Z,70.88
2023-04-15T17:04:36.524Z,71.42
2023-04-15T17:07:34.827Z,71.03
2023-04-15T17:10:32.281Z,71.20
2023-04-15T17:13:31.383Z,71.54
2023-04-15T17:16:30.017Z,71.50
2023-04-15T17:19:29.275Z,72.22
2023-04-15T17:22:27.268Z,71.94
2023-04-15T17:25:24.808Z,72.02
2023-04-15T17:28:24.043Z,72.73
2023-04-15T17:31:21.593Z,72.96
2023-04-15T17:34:19.385Z,72.97
2023-04-15T17:37:17.076Z,72.95
2023-04-15T17:40:16.648Z,73.27
2023-04-15T17:43:15.081Z,73.48
2023-04-15T17:46:14.012Z,74.03
2023-04-15T17:49:11.803Z,73.92
2023-04-15T17:52:09.826Z,74.02
2023-04-15T17:55:08.023Z,73.87
2023-04-15T17:58:06.590Z,73.79
2023-04-15T18:01:05.385Z,74.23
2023-04-15T18:04:08.637Z,74.53
2023-04-15T18:07:06.970Z,74.86
2023-04-15T18:10:05.448Z,74.95
2023-04-15T18:13:04.090Z,75.08
2023-04-15T18:16:02.196Z,75.36
2023-04-15T18:19:00.074Z,75.53
2023-04-15T18:21:58.721Z,75.70
2023-04-15T18:24:59.804Z,75.75
2023-04-15T18:27:57.781Z,75.96
2023-04-15T18:30:58.093Z,76.10
2023-04-15T18:33:56.678Z,76.39
2023-04-15T18:36:55.068Z,76.58
2023-04-15T18:39:53.046Z,76.66
2023-04-15T18:42:50.793Z,76.78
2023-04-15T18:45:49.095Z,76.95
2023-04-15T18:48:47.326Z,77.07
2023-04-15T18:51:46.576Z,77.21
2023-04-15T18:54:45.265Z,77.30
2023-04-15T18:57:45.827Z,77.52
2023-04-15T19:00:45.169Z,77.60
2023-04-15T19:03:43.649Z,77.76
2023-04-15T19:06:43.194Z,77.92
2023-04-15T19:09:41.196Z,78.14
2023-04-15T19:12:41.133Z,78.33
2023-04-15T19:15:39.667Z,78.49
2023-04-15T19:18:39.486Z,78.79
2023-04-15T19:21:42.815Z,79.04
2023-04-15T19:24:41.795Z,79.21
2023-04-15T19:27:41.524Z,79.38
2023-04-15T19:30:40.780Z,79.57
2023-04-15T19:33:38.660Z,79.77
2023-04-15T19:36:36.942Z,79.84
2023-04-15T19:39:35.738Z,80.00
2023-04-15T19:42:34.724Z,80.18
2023-04-15T19:45:33.624Z,80.29
2023-04-15T19:48:32.823Z,80.34
2023-04-15T19:51:33.122Z,80.38
2023-04-15T19:54:32.148Z,80.48
2023-04-15T19:57:29.657Z,80.55
2023-04-15T20:00:29.445Z,80.62
2023-04-15T20:03:29.276Z,80.70
2023-04-15T20:06:28.654Z,80.76
2023-04-15T20:09:26.874Z,80.84
2023-04-15T20:12:51.563Z,80.85
2023-04-15T20:15:46.378Z,80.80
2023-04-15T20:18:44.367Z,80.93
2023-04-15T20:21:43.587Z,81.07
2023-04-15T20:24:42.592Z,81.11
2023-04-15T20:27:40.608Z,81.13
2023-04-15T20:30:43.450Z,81.17
2023-04-15T20:33:41.629Z,81.21
2023-04-15T20:36:40.254Z,81.22
2023-04-15T20:39:38.608Z,81.25
2023-04-15T20:42:37.007Z,81.29
2023-04-15T20:45:35.668Z,81.25
2023-04-15T20:48:33.231Z,81.23
2023-04-15T20:51:39.020Z,81.33
2023-04-15T20:54:36.976Z,81.31
2023-04-15T20:57:34.844Z,81.32
2023-04-15T21:00:33.638Z,81.30
2023-04-15T21:03:31.278Z,81.43
2023-04-15T21:06:29.170Z,81.53
2023-04-15T21:09:26.583Z,81.69
2023-04-15T21:12:24.699Z,81.63
2023-04-15T21:15:22.190Z,81.74
2023-04-15T21:18:20.240Z,81.77
2023-04-15T21:21:18.849Z,81.74
2023-04-15T21:24:16.349Z,81.78
2023-04-15T21:27:14.034Z,81.79
2023-04-15T21:30:11.436Z,81.96
2023-04-15T21:33:09.139Z,81.92
2023-04-15T21:36:06.746Z,82.05
2023-04-15T21:39:04.465Z,82.04
2023-04-15T21:42:03.212Z,82.09
2023-04-15T21:45:00.720Z,82.14
2023-04-15T21:48:07.382Z,82.09
2023-04-15T21:51:06.179Z,82.07
2023-04-15T21:54:03.787Z,81.98
2023-04-15T21:57:02.311Z,81.99
2023-04-15T22:00:00.007Z,81.97
2023-04-15T22:02:57.515Z,81.93
2023-04-15T22:05:55.462Z,81.97
2023-04-15T22:08:57.344Z,81.99
2023-04-15T22:11:55.403Z,81.98
2023-04-15T22:14:53.081Z,81.92
2023-04-15T22:17:50.881Z,81.96
2023-04-15T22:20:48.594Z,81.96
2023-04-15T22:23:46.257Z,81.95
2023-04-15T22:26:43.697Z,81.94
2023-04-15T22:29:41.472Z,81.91
2023-04-15T22:32:38.918Z,81.90
2023-04-15T22:35:37.638Z,81.89
2023-04-15T22:38:35.086Z,81.91
2023-04-15T22:41:32.647Z,81.92
2023-04-15T22:44:30.519Z,81.95
2023-04-15T22:47:28.024Z,81.96
2023-04-15T22:50:25.840Z,82.12
2023-04-15T22:53:23.286Z,82.14
2023-04-15T22:56:21.572Z,82.24
2023-04-15T22:59:19.093Z,82.33
2023-04-15T23:02:19.498Z,82.42
2023-04-15T23:05:17.519Z,82.57
2023-04-15T23:08:14.971Z,82.75
2023-04-15T23:11:12.599Z,82.84
2023-04-15T23:14:09.995Z,82.92
2023-04-15T23:17:07.857Z,82.98
2023-04-15T23:20:05.321Z,83.00
2023-04-15T23:23:03.029Z,83.00
2023-04-15T23:26:01.795Z,83.04
2023-04-15T23:28:59.277Z,83.12
2023-04-15T23:31:57.137Z,83.13
2023-04-15T23:34:54.782Z,83.18
2023-04-15T23:37:52.568Z,83.23
2023-04-15T23:40:50.036Z,83.19
2023-04-15T23:43:47.688Z,83.15
2023-04-15T23:46:45.400Z,83.13
2023-04-15T23:49:42.816Z,82.99
2023-04-15T23:52:40.548Z,82.99
2023-04-15T23:55:37.949Z,82.99
2023-04-15T23:58:35.720Z,82.91
